createdAt,value
2022-12-19T00:01:16.499Z,-1.10
2022-12-19T00:06:10.127Z,-1.20
2022-12-19T00:11:04.776Z,-1.20
2022-12-19T00:16:03.251Z,-1.10
2022-12-19T00:21:00.438Z,-1.10
2022-12-19T00:25:53.897Z,-1.20
2022-12-19T00:30:47.709Z,-1.20
2022-12-19T00:35:41.133Z,-1.20
2022-12-19T00:40:36.336Z,-1.10
2022-12-19T00:45:29.737Z,-1.10
2022-12-19T00:50:24.685Z,-1.10
2022-12-19T00:55:19.361Z,-1.00
2022-12-19T01:00:17.435Z,-1.00
2022-12-19T01:05:11.982Z,-0.90
2022-12-19T01:10:07.149Z,-0.90
2022-12-19T01:15:04.068Z,-0.90
2022-12-19T01:20:01.988Z,-1.00
2022-12-19T01:24:55.540Z,-1.00
2022-12-19T01:29:52.197Z,-1.00
2022-12-19T01:34:46.262Z,-1.00
2022-12-19T01:39:41.000Z,-1.00
2022-12-19T01:44:37.725Z,-0.90
2022-12-19T01:49:35.450Z,-1.00
2022-12-19T01:54:37.149Z,-1.00
2022-12-19T01:59:37.003Z,-1.00
2022-12-19T02:04:32.611Z,-1.00
2022-12-19T02:09:30.764Z,-1.00
2022-12-19T02:14:24.342Z,-1.00
2022-12-19T02:20:46.686Z,-1.00
2022-12-19T02:26:07.922Z,-0.90
2022-12-19T02:31:19.414Z,-0.90
2022-12-19T02:36:22.421Z,-0.90
2022-12-19T02:41:24.351Z,-0.80
2022-12-19T03:06:05.388Z,-0.90
2022-12-19T03:11:03.292Z,-0.80
2022-12-19T03:15:57.755Z,-0.90
2022-12-19T03:21:03.856Z,-0.90
2022-12-19T03:26:03.841Z,-0.80
2022-12-19T03:31:01.946Z,-0.80
2022-12-19T03:36:02.260Z,-0.80
2022-12-19T03:40:57.836Z,-0.80
2022-12-19T03:45:58.634Z,-0.80
2022-12-19T03:51:06.813Z,-0.70
2022-12-19T03:56:10.706Z,-0.70
2022-12-19T04:01:07.072Z,-0.70
2022-12-19T04:06:04.175Z,-0.60
2022-12-19T04:11:05.270Z,-0.60
2022-12-19T04:16:12.065Z,-0.60
2022-12-19T04:21:15.807Z,-0.50
2022-12-19T04:26:11.100Z,-0.50
2022-12-19T04:31:06.666Z,-0.50
2022-12-19T04:36:01.174Z,-0.50
2022-12-19T04:40:56.781Z,-0.50
2022-12-19T04:45:55.522Z,-0.50
2022-12-19T04:50:50.549Z,-0.40
2022-12-19T04:55:44.311Z,-0.40
2022-12-19T05:00:40.051Z,-0.40
2022-12-19T05:05:33.460Z,-0.50
2022-12-19T05:10:26.963Z,-0.40
2022-12-19T05:15:20.385Z,-0.40
2022-12-19T05:20:15.059Z,-0.40
2022-12-19T05:25:10.255Z,-0.40
2022-12-19T05:30:03.683Z,-0.40
2022-12-19T05:34:57.063Z,-0.40
2022-12-19T05:39:51.757Z,-0.40
2022-12-19T05:44:45.128Z,-0.30
2022-12-19T05:49:41.019Z,-0.30
2022-12-19T05:54:34.351Z,-0.40
2022-12-19T05:59:29.099Z,-0.40
2022-12-19T06:04:22.484Z,-0.40
2022-12-19T06:09:15.878Z,-0.40
2022-12-19T06:14:09.235Z,-0.40
2022-12-19T06:19:04.098Z,-0.40
2022-12-19T06:23:57.847Z,-0.40
2022-12-19T06:28:53.750Z,-0.40
2022-12-19T06:33:47.412Z,-0.40
2022-12-19T06:38:42.546Z,-0.40
2022-12-19T06:43:35.846Z,-0.40
2022-12-19T06:48:29.802Z,-0.40
2022-12-19T06:53:23.616Z,-0.30
2022-12-19T06:58:23.993Z,-0.30
2022-12-19T07:03:23.119Z,-0.30
2022-12-19T07:08:16.536Z,-0.30
2022-12-19T07:13:09.936Z,-0.30
2022-12-19T07:18:10.241Z,-0.30
2022-12-19T07:23:05.675Z,-0.30
2022-12-19T07:27:59.452Z,-0.30
2022-12-19T07:32:52.798Z,-0.30
2022-12-19T07:37:47.784Z,-0.30
2022-12-19T07:42:41.280Z,-0.30
2022-12-19T07:47:34.953Z,-0.30
2022-12-19T07:52:28.917Z,-0.30
2022-12-19T07:57:23.651Z,-0.30
2022-12-19T08:02:17.084Z,-0.20
2022-12-19T08:07:10.818Z,-0.20
2022-12-19T08:12:04.387Z,-0.20
2022-12-19T08:22:13.279Z,-0.10
2022-12-19T08:27:06.870Z,-0.10
2022-12-19T08:32:01.594Z,-0.10
2022-12-19T08:36:54.973Z,-0.10
2022-12-19T08:41:48.390Z,0.00
2022-12-19T08:46:48.088Z,0.00
2022-12-19T08:51:44.422Z,0.10
2022-12-19T08:56:37.848Z,0.20
2022-12-19T09:01:36.469Z,0.20
2022-12-19T09:06:29.954Z,0.20
2022-12-19T09:11:25.232Z,0.20
2022-12-19T09:16:21.884Z,0.20
2022-12-19T09:21:15.705Z,0.20
2022-12-19T09:26:11.586Z,0.20
2022-12-19T09:31:09.331Z,0.30
2022-12-19T09:36:03.786Z,0.20
2022-12-19T09:41:21.581Z,0.20
2022-12-19T09:46:25.448Z,0.20
2022-12-19T09:51:34.325Z,0.20
2022-12-19T09:56:34.070Z,0.20
2022-12-19T10:01:53.578Z,0.30
2022-12-19T10:07:11.418Z,0.30
2022-12-19T10:12:44.837Z,0.40
2022-12-19T10:18:02.542Z,0.40
2022-12-19T10:23:47.018Z,0.50
2022-12-19T10:29:05.469Z,0.70
2022-12-19T10:34:09.270Z,0.80
2022-12-19T10:39:13.670Z,0.90
2022-12-19T10:44:10.631Z,0.90
2022-12-19T10:49:14.339Z,0.90
2022-12-19T10:54:07.936Z,1.00
2022-12-19T10:59:03.083Z,1.00
2022-12-19T11:09:25.566Z,1.10
2022-12-19T11:18:34.383Z,1.00
2022-12-19T11:29:26.597Z,1.00
2022-12-19T11:30:36.949Z,1.00
2022-12-19T11:35:50.222Z,0.90
2022-12-19T11:40:50.118Z,1.00
2022-12-19T11:45:59.515Z,1.00
2022-12-19T11:51:06.513Z,1.00
2022-12-19T11:56:16.484Z,1.00
2022-12-19T12:01:24.975Z,1.10
2022-12-19T12:06:19.900Z,1.10
2022-12-19T12:19:58.796Z,1.00
2022-12-19T12:29:21.028Z,1.10
2022-12-19T12:31:06.541Z,1.10
2022-12-19T12:31:52.228Z,1.10
2022-12-19T12:35:55.105Z,1.10
2022-12-19T12:39:47.824Z,1.10
2022-12-19T12:44:46.457Z,1.10
2022-12-19T12:49:45.856Z,1.20
2022-12-19T12:54:45.163Z,1.10
2022-12-19T12:59:38.551Z,1.10
2022-12-19T13:04:36.861Z,1.20
2022-12-19T13:09:35.407Z,1.20
2022-12-19T13:14:50.958Z,1.20
2022-12-19T13:19:57.976Z,1.30
2022-12-19T13:24:53.899Z,1.40
2022-12-19T13:30:03.848Z,1.40
2022-12-19T13:35:10.593Z,1.40
2022-12-19T13:40:30.607Z,1.30
2022-12-19T13:45:31.440Z,1.20
2022-12-19T13:50:31.997Z,1.30
2022-12-19T13:55:25.891Z,1.30
2022-12-19T14:00:24.070Z,1.30
2022-12-19T14:05:36.075Z,1.30
2022-12-19T14:11:34.127Z,1.30
2022-12-19T14:16:03.290Z,1.30
2022-12-19T14:22:08.863Z,1.20
2022-12-19T14:28:19.655Z,1.20
2022-12-19T14:32:33.374Z,1.10
2022-12-19T14:37:02.195Z,1.10
2022-12-19T14:42:31.368Z,1.00
2022-12-19T14:52:35.251Z,1.00
2022-12-19T14:54:50.326Z,0.90
2022-12-19T14:58:53.315Z,0.90
2022-12-19T15:04:51.953Z,0.80
2022-12-19T15:10:59.986Z,0.80
2022-12-19T15:14:55.377Z,0.70
2022-12-19T15:19:46.977Z,0.60
2022-12-19T15:24:42.116Z,0.50
2022-12-19T15:29:35.987Z,0.50
2022-12-19T15:34:37.222Z,0.40
2022-12-19T15:39:35.095Z,0.40
2022-12-19T15:44:34.822Z,0.20
2022-12-19T15:49:28.153Z,0.20
2022-12-19T15:54:47.917Z,0.20
2022-12-19T15:59:44.925Z,0.10
2022-12-19T16:04:38.387Z,0.10
2022-12-19T16:09:33.439Z,0.00
2022-12-19T16:14:28.058Z,0.00
2022-12-19T16:19:29.201Z,-0.10
2022-12-19T16:24:23.464Z,-0.20
2022-12-19T16:29:22.349Z,-0.20
2022-12-19T16:34:19.383Z,-0.20
2022-12-19T16:39:14.922Z,-0.10
2022-12-19T16:44:19.556Z,-0.10
2022-12-19T16:49:16.956Z,-0.20
2022-12-19T16:54:14.428Z,-0.10
2022-12-19T16:59:15.669Z,-0.10
2022-12-19T17:04:10.223Z,-0.10
2022-12-19T17:09:03.572Z,-0.10
2022-12-19T17:14:09.068Z,-0.10
2022-12-19T17:19:03.282Z,-0.10
2022-12-19T17:56:34.276Z,-0.20
2022-12-19T18:01:27.895Z,-0.10
2022-12-19T18:06:22.418Z,-0.10
2022-12-19T18:11:22.152Z,-0.20
2022-12-19T18:16:20.856Z,-0.20
2022-12-19T18:41:21.162Z,-0.10
2022-12-19T18:46:17.580Z,-0.30
2022-12-19T18:57:44.950Z,-0.30
2022-12-19T19:02:38.645Z,-0.30
2022-12-19T19:07:32.896Z,-0.30
2022-12-19T19:12:26.215Z,-0.30
2022-12-19T19:17:29.370Z,-0.30
2022-12-19T19:22:23.399Z,-0.30
2022-12-19T19:33:55.796Z,-0.20
2022-12-19T19:38:55.922Z,-0.20
